createdAt,value
2017-10-31T17:50:01.473Z,7.99
2017-10-31T17:51:01.775Z,8.02
2017-10-31T17:52:02.091Z,7.98
2017-10-31T17:53:02.083Z,8.03
2017-10-31T17:54:01.424Z,8.05
2017-10-31T17:55:02.184Z,7.99
2017-10-31T17:56:02.204Z,7.96
2017-10-31T17:57:01.821Z,7.95
2017-10-31T17:58:01.388Z,7.95
2017-10-31T17:59:01.703Z,8.05
2017-10-31T18:00:01.794Z,7.98
2017-10-31T18:01:01.362Z,7.96
2017-10-31T18:02:01.683Z,8.02
2017-10-31T18:03:01.991Z,8.01
2017-10-31T18:04:01.659Z,8.01
2017-10-31T18:05:01.324Z,7.93
2017-10-31T18:06:01.648Z,7.99
2017-10-31T18:07:01.642Z,7.96
2017-10-31T18:08:01.617Z,7.88
2017-10-31T18:09:02.086Z,7.85
2017-10-31T18:10:01.929Z,7.85
2017-10-31T18:11:01.598Z,7.83
2017-10-31T18:12:01.260Z,7.81
2017-10-31T18:13:01.248Z,7.78
2017-10-31T18:14:01.245Z,7.77
2017-10-31T18:15:01.480Z,7.78
2017-10-31T18:16:01.547Z,7.8
2017-10-31T18:17:01.550Z,7.74
2017-10-31T18:18:01.858Z,7.64
2017-10-31T18:19:01.518Z,7.66
2017-10-31T18:20:01.930Z,7.67
2017-10-31T18:21:01.826Z,7.55
2017-10-31T18:22:01.488Z,7.62
2017-10-31T18:23:01.515Z,7.56
2017-10-31T18:24:01.298Z,7.61
2017-10-31T18:25:01.140Z,7.59
2017-10-31T18:26:01.453Z,7.59
2017-10-31T18:27:01.448Z,7.62
2017-10-31T18:28:01.786Z,7.59
2017-10-31T18:29:01.100Z,7.67
2017-10-31T18:30:01.743Z,7.61
2017-10-31T18:31:01.411Z,7.56
2017-10-31T18:32:01.075Z,7.56
2017-10-31T18:33:01.387Z,7.64
2017-10-31T18:34:01.411Z,7.53
2017-10-31T18:35:01.366Z,7.61
2017-10-31T18:36:01.360Z,7.56
2017-10-31T18:37:01.685Z,7.59
2017-10-31T18:38:01.345Z,7.64
2017-10-31T18:39:01.331Z,7.59
2017-10-31T18:40:01.099Z,7.55
2017-10-31T18:41:01.321Z,7.47
2017-10-31T18:42:01.315Z,7.53
2017-10-31T18:43:01.321Z,7.56
2017-10-31T18:44:01.293Z,7.48
2017-10-31T18:45:01.755Z,7.46
2017-10-31T18:46:01.717Z,7.44
2017-10-31T18:47:00.935Z,7.47
2017-10-31T18:48:01.248Z,7.41
2017-10-31T18:49:01.565Z,7.4
2017-10-31T18:50:01.552Z,7.48
2017-10-31T18:51:01.231Z,7.46
2017-10-31T18:52:01.215Z,7.46
2017-10-31T18:53:01.528Z,7.48
2017-10-31T18:54:01.528Z,7.41
2017-10-31T18:55:01.182Z,7.41
2017-10-31T18:56:00.850Z,7.46
2017-10-31T18:57:01.486Z,7.46
2017-10-31T18:58:01.159Z,7.37
2017-10-31T18:59:01.154Z,7.37
2017-10-31T19:00:00.815Z,7.33
2017-10-31T19:01:01.280Z,7.32
2017-10-31T19:02:01.121Z,7.28
2017-10-31T19:03:00.788Z,7.23
2017-10-31T19:04:00.778Z,7.31
2017-10-31T19:05:00.769Z,7.26
2017-10-31T19:06:00.759Z,7.33
2017-10-31T19:07:01.073Z,7.29
2017-10-31T19:08:01.387Z,7.22
2017-10-31T19:09:01.388Z,7.15
2017-10-31T19:10:00.722Z,7.07
2017-10-31T19:11:00.714Z,7.1
2017-10-31T19:12:00.704Z,7.04
2017-10-31T19:13:01.367Z,7.05
2017-10-31T19:14:01.008Z,7.01
2017-10-31T19:15:00.674Z,7.07
2017-10-31T19:16:00.991Z,7
2017-10-31T19:17:00.979Z,6.95
2017-10-31T19:18:00.648Z,7.01
2017-10-31T19:19:00.638Z,7.03
2017-10-31T19:20:00.955Z,7
2017-10-31T19:21:00.949Z,7.01
2017-10-31T19:22:00.936Z,7.01
2017-10-31T19:23:00.923Z,6.92
2017-10-31T19:24:00.592Z,6.92
2017-10-31T19:25:00.907Z,6.93
2017-10-31T19:26:00.900Z,6.86
2017-10-31T19:27:01.155Z,6.83
2017-10-31T19:28:00.881Z,6.89
2017-10-31T19:29:00.876Z,6.92
2017-10-31T19:30:00.537Z,6.89
2017-10-31T19:31:01.285Z,6.82
2017-10-31T19:32:00.619Z,6.85
2017-10-31T19:33:00.834Z,6.86
2017-10-31T19:34:00.499Z,6.83
2017-10-31T19:35:00.489Z,6.78
2017-10-31T19:36:01.228Z,6.78
2017-10-31T19:37:00.471Z,6.8
2017-10-31T19:38:00.791Z,6.75
2017-10-31T19:39:00.890Z,6.77
2017-10-31T19:40:00.767Z,6.8
2017-10-31T19:41:00.758Z,6.72
2017-10-31T19:42:01.073Z,6.78
2017-10-31T19:43:00.739Z,6.75
2017-10-31T19:44:00.731Z,6.7
2017-10-31T19:45:01.043Z,6.77
2017-10-31T19:46:00.863Z,6.71
2017-10-31T19:47:00.378Z,6.67
2017-10-31T19:48:00.690Z,6.71
2017-10-31T19:49:00.780Z,6.72
2017-10-31T19:50:00.672Z,6.74
2017-10-31T19:51:00.989Z,6.71
2017-10-31T19:52:00.332Z,6.78
2017-10-31T19:53:00.645Z,6.74
2017-10-31T19:54:00.637Z,6.77
2017-10-31T19:55:00.628Z,6.74
2017-10-31T19:56:00.616Z,6.6
2017-10-31T19:57:00.607Z,6.64
2017-10-31T19:58:00.599Z,6.6
2017-10-31T19:59:00.919Z,6.54
2017-10-31T20:00:00.257Z,6.53
2017-10-31T20:01:00.895Z,6.5
2017-10-31T20:02:00.883Z,6.53
2017-10-31T20:03:00.879Z,6.52
2017-10-31T20:04:00.540Z,6.36
2017-10-31T20:05:00.209Z,6.39
2017-10-31T20:06:00.526Z,6.38
2017-10-31T20:07:00.617Z,6.44
2017-10-31T20:08:00.182Z,6.53
2017-10-31T20:09:00.826Z,6.43
2017-10-31T20:10:00.811Z,6.36
2017-10-31T20:11:00.779Z,6.38
2017-10-31T20:12:00.142Z,6.43
2017-10-31T20:13:00.459Z,6.39
2017-10-31T20:14:00.774Z,6.49
2017-10-31T20:15:00.117Z,6.36
2017-10-31T20:16:00.678Z,6.38
2017-10-31T20:17:00.098Z,6.35
2017-10-31T20:18:00.086Z,6.46
2017-10-31T20:19:00.404Z,6.38
2017-10-31T20:20:00.720Z,6.35
2017-10-31T20:21:00.958Z,6.35
2017-10-31T20:22:00.862Z,6.38
2017-10-31T20:23:00.041Z,6.5
2017-10-31T20:24:00.353Z,6.47
2017-10-31T20:25:00.347Z,6.5
2017-10-31T20:26:00.341Z,6.52
2017-10-31T20:27:00.107Z,6.5
2017-10-31T20:27:59.994Z,6.5
2017-10-31T20:29:00.311Z,6.46
2017-10-31T20:30:00.622Z,6.52
2017-10-31T20:30:59.965Z,6.49
2017-10-31T20:31:59.958Z,6.47
2017-10-31T20:33:00.276Z,6.43
2017-10-31T20:33:59.936Z,6.32
2017-10-31T20:34:59.926Z,6.39
2017-10-31T20:36:00.023Z,6.34
2017-10-31T20:37:00.659Z,6.36
2017-10-31T20:38:00.219Z,6.38
2017-10-31T20:39:00.215Z,6.41
2017-10-31T20:40:00.528Z,6.39
2017-10-31T20:41:00.346Z,6.35
2017-10-31T20:42:00.191Z,6.34
2017-10-31T20:43:00.177Z,6.32
2017-10-31T20:43:59.845Z,6.34
2017-10-31T20:45:00.159Z,6.36
2017-10-31T20:46:00.487Z,6.29
2017-10-31T20:47:00.472Z,6.29
2017-10-31T20:47:59.806Z,6.32
2017-10-31T20:48:59.797Z,6.32
2017-10-31T20:50:00.115Z,6.28
2017-10-31T20:51:00.255Z,6.29
2017-10-31T20:52:00.092Z,6.28
2017-10-31T20:53:00.684Z,6.26
2017-10-31T20:54:00.518Z,6.2
2017-10-31T20:55:00.195Z,6.26
2017-10-31T20:56:00.168Z,6.26
2017-10-31T20:57:14.956Z,6.25
2017-10-31T20:58:00.033Z,6.28
2017-10-31T20:59:00.028Z,6.26
2017-10-31T21:00:00.024Z,6.17
2017-10-31T21:00:59.685Z,6.15
2017-10-31T21:02:00.001Z,6.1
2017-10-31T21:02:59.991Z,6.13
2017-10-31T21:03:59.657Z,6.1
2017-10-31T21:05:00.293Z,6.07
2017-10-31T21:05:59.636Z,6.19
2017-10-31T21:06:59.951Z,6.09
2017-10-31T21:08:00.267Z,6.16
2017-10-31T21:08:59.611Z,6.09
2017-10-31T21:09:59.924Z,6.16
2017-10-31T21:10:59.912Z,6.15
2017-10-31T21:11:59.582Z,6.15
2017-10-31T21:13:00.218Z,6.16
2017-10-31T21:13:59.558Z,6.09
2017-10-31T21:14:59.552Z,6.07
2017-10-31T21:15:59.864Z,6.06
2017-10-31T21:16:59.534Z,5.99
2017-10-31T21:17:59.851Z,6.05
2017-10-31T21:18:59.835Z,5.95
2017-10-31T21:19:59.929Z,5.97
2017-10-31T21:20:59.917Z,5.92
2017-10-31T21:21:59.486Z,5.97
2017-10-31T21:22:59.477Z,5.98
2017-10-31T21:23:59.790Z,5.87
2017-10-31T21:24:59.794Z,5.94
2017-10-31T21:25:59.871Z,5.87
2017-10-31T21:27:00.093Z,5.95
2017-10-31T21:27:59.902Z,5.95
2017-10-31T21:28:59.418Z,5.98
2017-10-31T21:30:00.056Z,5.9
2017-10-31T21:30:59.726Z,5.95
2017-10-31T21:31:59.713Z,5.92
2017-10-31T21:32:59.704Z,5.94
2017-10-31T21:33:59.699Z,5.95
2017-10-31T21:34:59.685Z,5.91
2017-10-31T21:35:59.678Z,6.01
2017-10-31T21:36:59.817Z,5.98
2017-10-31T21:37:59.334Z,5.9
2017-10-31T21:38:59.981Z,5.9
2017-10-31T21:39:59.640Z,5.9
2017-10-31T21:40:59.304Z,5.81
2017-10-31T21:41:59.298Z,5.92
2017-10-31T21:42:59.936Z,5.91
2017-10-31T21:43:59.933Z,5.88
2017-10-31T21:44:59.588Z,5.9
2017-10-31T21:46:00.010Z,5.84
2017-10-31T21:46:59.253Z,5.9
2017-10-31T21:47:59.238Z,5.84
2017-10-31T21:48:59.230Z,5.87
2017-10-31T21:49:59.549Z,5.81
2017-10-31T21:50:59.212Z,5.83
2017-10-31T21:51:59.529Z,5.74
2017-10-31T21:52:59.194Z,5.84
2017-10-31T21:53:59.505Z,5.77
2017-10-31T21:54:59.172Z,5.83
2017-10-31T21:55:59.163Z,5.8
2017-10-31T21:56:59.576Z,5.74
2017-10-31T21:57:59.470Z,5.77
2017-10-31T21:58:59.458Z,5.77
2017-10-31T21:59:59.449Z,5.73
2017-10-31T22:00:59.913Z,5.67
2017-10-31T22:01:59.430Z,5.65
2017-10-31T22:02:59.099Z,5.61
2017-10-31T22:03:59.411Z,5.64
2017-10-31T22:04:59.073Z,5.61
2017-10-31T22:05:59.216Z,5.67
2017-10-31T22:06:59.530Z,5.64
2017-10-31T22:07:59.046Z,5.64
2017-10-31T22:08:59.039Z,5.69
2017-10-31T22:09:59.355Z,5.74
2017-10-31T22:10:59.357Z,5.59
2017-10-31T22:11:59.012Z,5.69
2017-10-31T22:12:59.101Z,5.67
2017-10-31T22:13:59.314Z,5.62
2017-10-31T22:14:59.305Z,5.7
2017-10-31T22:15:59.300Z,5.64
2017-10-31T22:16:59.284Z,5.7
2017-10-31T22:17:58.953Z,5.64
2017-10-31T22:18:58.945Z,5.61
2017-10-31T22:19:59.583Z,5.61
2017-10-31T22:20:58.924Z,5.67
2017-10-31T22:21:59.339Z,5.61
2017-10-31T22:22:59.237Z,5.67
2017-10-31T22:23:59.368Z,5.61
2017-10-31T22:24:58.887Z,5.67
2017-10-31T22:25:58.878Z,5.65
2017-10-31T22:26:59.519Z,5.64
2017-10-31T22:27:59.511Z,5.59
2017-10-31T22:28:59.178Z,5.59
2017-10-31T22:29:59.165Z,5.64
2017-10-31T22:30:59.154Z,5.58
2017-10-31T22:31:59.143Z,5.47
2017-10-31T22:32:59.142Z,5.54
2017-10-31T22:33:59.127Z,5.56
2017-10-31T22:34:59.117Z,5.58
2017-10-31T22:35:59.111Z,5.49
2017-10-31T22:36:59.098Z,5.49
2017-10-31T22:37:59.085Z,5.55
2017-10-31T22:38:59.075Z,5.55
2017-10-31T22:39:59.067Z,5.51
2017-10-31T22:40:59.061Z,5.51
2017-10-31T22:41:59.530Z,5.52
2017-10-31T22:42:59.035Z,5.58
2017-10-31T22:43:59.368Z,5.52
2017-10-31T22:44:59.340Z,5.41
2017-10-31T22:45:59.010Z,5.46
2017-10-31T22:46:58.677Z,5.4
2017-10-31T22:47:58.993Z,5.4
2017-10-31T22:48:58.662Z,5.55
2017-10-31T22:49:58.978Z,5.44
2017-10-31T22:50:59.286Z,5.4
2017-10-31T22:51:59.278Z,5.43
2017-10-31T22:52:58.943Z,5.37
2017-10-31T22:53:58.938Z,5.47
2017-10-31T22:54:58.925Z,5.38
2017-10-31T22:55:59.268Z,5.44
2017-10-31T22:56:58.910Z,5.43
2017-10-31T22:57:58.572Z,5.38
2017-10-31T22:58:58.560Z,5.46
2017-10-31T22:59:58.886Z,5.49
2017-10-31T23:00:58.873Z,5.46
2017-10-31T23:01:59.180Z,5.41
2017-10-31T23:02:58.851Z,5.4
2017-10-31T23:03:58.841Z,5.41
2017-10-31T23:04:58.653Z,5.4
2017-10-31T23:05:59.140Z,5.37
2017-10-31T23:06:58.486Z,5.52
2017-10-31T23:07:58.575Z,5.43
2017-10-31T23:08:58.790Z,5.51
2017-10-31T23:09:58.457Z,5.44
2017-10-31T23:10:58.771Z,5.37
2017-10-31T23:11:58.437Z,5.4
2017-10-31T23:12:58.428Z,5.37
2017-10-31T23:13:59.068Z,5.41
2017-10-31T23:14:58.731Z,5.4
2017-10-31T23:15:58.401Z,5.37
2017-10-31T23:16:58.390Z,5.41
2017-10-31T23:17:58.704Z,5.43
2017-10-31T23:18:59.020Z,5.44
2017-10-31T23:19:58.689Z,5.47
2017-10-31T23:20:58.672Z,5.43
2017-10-31T23:21:58.989Z,5.36
2017-10-31T23:22:58.656Z,5.29
2017-10-31T23:23:58.974Z,5.29
2017-10-31T23:24:58.654Z,5.31
2017-10-31T23:25:58.952Z,5.31
2017-10-31T23:26:58.617Z,5.25
2017-10-31T23:27:58.606Z,5.23
2017-10-31T23:28:58.595Z,5.2
2017-10-31T23:29:58.589Z,5.16
2017-10-31T23:30:58.577Z,5.22
2017-10-31T23:31:58.892Z,5.18
2017-10-31T23:32:58.881Z,5.18
2017-10-31T23:33:58.649Z,5.23
2017-10-31T23:34:58.875Z,5.19
2017-10-31T23:35:58.876Z,5.2
2017-10-31T23:36:58.196Z,5.26
2017-10-31T23:37:58.512Z,5.19
2017-10-31T23:38:58.177Z,5.25
2017-10-31T23:39:58.495Z,5.16
2017-10-31T23:40:58.480Z,5.22
2017-10-31T23:41:58.474Z,5.2
2017-10-31T23:42:58.139Z,5.18
2017-10-31T23:43:58.452Z,5.23
2017-10-31T23:44:58.769Z,5.16
2017-10-31T23:45:58.633Z,5.19
2017-10-31T23:46:58.438Z,5.18
2017-10-31T23:47:58.090Z,5.19
2017-10-31T23:48:58.726Z,5.22
2017-10-31T23:49:58.720Z,5.16
2017-10-31T23:50:58.386Z,5.16
2017-10-31T23:51:58.375Z,5.1
2017-10-31T23:52:58.369Z,5.16
2017-10-31T23:53:58.455Z,5.19
2017-10-31T23:54:58.343Z,5.16
2017-10-31T23:55:58.114Z,5.18
2017-10-31T23:56:58.324Z,5.13
2017-10-31T23:57:57.995Z,5.15
2017-10-31T23:58:58.307Z,5.04
2017-10-31T23:59:57.975Z,5.01
